createdAt,value
2022-12-08T00:01:21.654Z,1.90
2022-12-08T00:03:48.711Z,1.88
2022-12-08T00:06:59.431Z,2.75
2022-12-08T00:09:34.722Z,2.45
2022-12-08T00:12:06.073Z,2.28
2022-12-08T00:14:38.510Z,1.90
2022-12-08T00:17:07.456Z,2.25
2022-12-08T00:19:34.159Z,3.97
2022-12-08T00:22:00.792Z,3.95
2022-12-08T00:24:32.260Z,4.13
2022-12-08T00:26:58.958Z,4.15
2022-12-08T00:29:25.561Z,3.95
2022-12-08T00:31:52.594Z,5.45
2022-12-08T00:34:19.802Z,3.05
2022-12-08T00:36:46.621Z,2.63
2022-12-08T00:39:15.307Z,1.80
2022-12-08T00:42:00.613Z,2.00
2022-12-08T00:44:27.258Z,2.28
2022-12-08T00:46:53.973Z,3.53
2022-12-08T00:49:21.038Z,4.32
2022-12-08T00:51:47.729Z,5.15
2022-12-08T00:54:14.969Z,4.95
2022-12-08T00:56:41.599Z,4.18
2022-12-08T00:59:08.532Z,4.28
2022-12-08T01:01:35.865Z,3.58
2022-12-08T01:04:11.143Z,3.97
2022-12-08T01:06:39.004Z,3.80
2022-12-08T01:09:07.234Z,5.13
2022-12-08T01:11:34.894Z,5.03
2022-12-08T01:14:02.031Z,3.47
2022-12-08T01:16:31.505Z,3.58
2022-12-08T01:18:59.819Z,3.70
2022-12-08T01:21:27.042Z,3.80
2022-12-08T01:23:54.640Z,4.55
2022-12-08T01:26:21.812Z,4.85
2022-12-08T01:28:48.782Z,4.40
2022-12-08T01:31:18.753Z,4.13
2022-12-08T01:33:46.395Z,4.15
2022-12-08T01:36:24.980Z,4.97
2022-12-08T01:38:52.469Z,4.25
2022-12-08T01:41:22.214Z,4.03
2022-12-08T01:44:24.070Z,4.32
2022-12-08T01:46:54.007Z,3.75
2022-12-08T01:49:23.477Z,4.20
2022-12-08T01:52:22.123Z,3.90
2022-12-08T01:54:57.226Z,2.83
2022-12-08T01:57:33.356Z,2.80
2022-12-08T02:00:05.158Z,2.45
2022-12-08T02:02:40.212Z,2.55
2022-12-08T02:05:07.623Z,3.08
2022-12-08T02:07:35.697Z,3.53
2022-12-08T02:10:03.843Z,3.13
2022-12-08T02:12:30.759Z,2.75
2022-12-08T02:15:01.854Z,2.80
2022-12-08T02:17:53.793Z,3.13
2022-12-08T02:21:03.789Z,3.03
2022-12-08T02:23:53.679Z,2.80
2022-12-08T02:26:38.808Z,3.53
2022-12-08T02:29:14.609Z,3.60
2022-12-08T02:31:59.987Z,2.92
2022-12-08T02:34:49.414Z,3.17
2022-12-08T02:37:37.253Z,3.55
2022-12-08T02:40:21.960Z,2.85
2022-12-08T02:43:03.730Z,2.40
2022-12-08T02:45:43.358Z,3.30
2022-12-08T02:48:10.466Z,3.58
2022-12-08T02:50:37.102Z,3.63
2022-12-08T02:55:45.502Z,3.13
2022-12-08T02:58:21.089Z,2.80
2022-12-08T03:00:50.590Z,2.50
2022-12-08T03:03:28.207Z,3.05
2022-12-08T03:06:06.710Z,3.63
2022-12-08T03:08:37.263Z,3.70
2022-12-08T03:11:08.737Z,3.65
2022-12-08T03:13:45.768Z,3.35
2022-12-08T03:16:16.775Z,3.45
2022-12-08T03:18:48.830Z,3.42
2022-12-08T03:21:18.270Z,4.10
2022-12-08T03:23:48.056Z,3.47
2022-12-08T03:26:29.450Z,3.17
2022-12-08T03:28:56.655Z,4.47
2022-12-08T03:31:27.180Z,4.45
2022-12-08T03:33:56.660Z,3.47
2022-12-08T03:36:24.146Z,4.35
2022-12-08T03:38:53.674Z,3.88
2022-12-08T03:41:22.229Z,3.53
2022-12-08T03:43:50.533Z,3.67
2022-12-08T03:46:19.266Z,3.67
2022-12-08T03:48:45.950Z,4.82
2022-12-08T03:51:12.688Z,3.30
2022-12-08T03:53:39.552Z,3.33
2022-12-08T03:56:27.185Z,3.90
2022-12-08T03:58:54.791Z,3.95
2022-12-08T04:01:22.558Z,3.78
2022-12-08T04:03:49.629Z,3.42
2022-12-08T04:06:16.928Z,3.38
2022-12-08T04:08:43.736Z,3.40
2022-12-08T04:11:11.011Z,3.85
2022-12-08T04:13:39.695Z,4.32
2022-12-08T04:16:07.759Z,4.78
2022-12-08T04:18:35.588Z,4.38
2022-12-08T04:21:02.422Z,4.00
2022-12-08T04:23:29.018Z,3.78
2022-12-08T04:25:55.628Z,3.25
2022-12-08T04:28:22.232Z,3.30
2022-12-08T04:30:49.742Z,3.70
2022-12-08T04:33:16.732Z,4.28
2022-12-08T04:35:43.472Z,3.97
2022-12-08T04:38:10.015Z,4.00
2022-12-08T04:40:36.634Z,3.22
2022-12-08T04:43:03.252Z,3.95
2022-12-08T04:45:29.869Z,3.65
2022-12-08T04:47:56.523Z,3.75
2022-12-08T04:50:23.095Z,2.90
2022-12-08T04:52:49.739Z,3.08
2022-12-08T04:55:16.378Z,3.60
2022-12-08T04:57:43.023Z,3.90
2022-12-08T05:00:10.521Z,3.25
2022-12-08T05:02:37.663Z,4.55
2022-12-08T05:05:04.903Z,3.72
2022-12-08T05:07:31.494Z,4.15
2022-12-08T05:09:58.200Z,3.88
2022-12-08T05:12:25.106Z,3.25
2022-12-08T05:14:51.806Z,3.47
2022-12-08T05:17:18.966Z,3.40
2022-12-08T05:19:45.539Z,6.03
2022-12-08T05:22:12.193Z,4.03
2022-12-08T05:24:43.982Z,4.05
2022-12-08T05:27:13.703Z,4.30
2022-12-08T05:29:40.296Z,3.33
2022-12-08T05:32:06.933Z,5.03
2022-12-08T05:34:33.689Z,4.07
2022-12-08T05:37:00.280Z,3.85
2022-12-08T05:39:26.881Z,3.55
2022-12-08T05:41:53.440Z,4.78
2022-12-08T05:44:20.002Z,4.72
2022-12-08T05:46:46.551Z,3.65
2022-12-08T05:49:13.175Z,5.57
2022-12-08T05:51:39.828Z,5.43
2022-12-08T05:54:06.410Z,4.18
2022-12-08T05:56:33.161Z,4.53
2022-12-08T05:58:59.755Z,5.28
2022-12-08T06:01:29.058Z,5.43
2022-12-08T06:03:57.867Z,3.75
2022-12-08T06:06:24.980Z,5.43
2022-12-08T06:08:51.990Z,5.70
2022-12-08T06:11:29.934Z,6.18
2022-12-08T06:13:58.020Z,5.03
2022-12-08T06:16:26.617Z,5.90
2022-12-08T06:18:53.307Z,4.55
2022-12-08T06:21:20.558Z,4.50
2022-12-08T06:23:51.982Z,5.10
2022-12-08T06:26:19.638Z,5.07
2022-12-08T06:28:46.318Z,6.80
2022-12-08T06:31:31.190Z,4.47
2022-12-08T06:33:57.924Z,4.90
2022-12-08T06:36:27.258Z,4.72
2022-12-08T06:38:53.956Z,5.38
2022-12-08T06:41:20.835Z,4.55
2022-12-08T06:43:47.471Z,4.05
2022-12-08T06:46:17.429Z,3.60
2022-12-08T06:48:44.627Z,2.92
2022-12-08T06:51:14.403Z,3.13
2022-12-08T06:53:42.017Z,3.13
2022-12-08T06:56:09.451Z,5.05
2022-12-08T06:58:36.187Z,4.47
2022-12-08T07:01:13.652Z,3.58
2022-12-08T07:03:40.934Z,4.07
2022-12-08T07:06:07.703Z,5.15
2022-12-08T07:08:35.108Z,5.30
2022-12-08T07:11:08.116Z,4.82
2022-12-08T07:13:34.754Z,5.70
2022-12-08T07:16:01.358Z,5.30
2022-12-08T07:18:27.924Z,6.03
2022-12-08T07:20:54.487Z,6.25
2022-12-08T07:23:21.040Z,4.90
2022-12-08T07:25:47.597Z,5.03
2022-12-08T07:28:14.226Z,5.82
2022-12-08T07:30:40.890Z,6.25
2022-12-08T07:33:07.515Z,6.20
2022-12-08T07:35:35.197Z,5.43
2022-12-08T07:38:02.539Z,4.30
2022-12-08T07:40:29.117Z,6.57
2022-12-08T07:42:55.763Z,6.30
2022-12-08T07:45:25.667Z,6.80
2022-12-08T07:47:56.451Z,5.75
2022-12-08T07:50:23.044Z,6.45
2022-12-08T07:52:49.846Z,6.28
2022-12-08T07:55:16.458Z,6.07
2022-12-08T07:57:43.131Z,5.70
2022-12-08T08:00:11.044Z,5.90
2022-12-08T08:02:37.800Z,3.92
2022-12-08T08:05:04.834Z,5.50
2022-12-08T08:07:32.323Z,4.53
2022-12-08T08:09:58.976Z,5.20
2022-12-08T08:12:33.137Z,3.88
2022-12-08T08:15:01.461Z,4.75
2022-12-08T08:17:29.726Z,3.70
2022-12-08T08:19:56.842Z,4.05
2022-12-08T08:22:25.018Z,3.85
2022-12-08T08:24:51.596Z,6.80
2022-12-08T08:27:18.437Z,4.90
2022-12-08T08:29:45.042Z,4.95
2022-12-08T08:32:11.685Z,5.20
2022-12-08T08:34:38.439Z,3.78
2022-12-08T08:37:05.033Z,6.20
2022-12-08T08:39:31.979Z,5.25
2022-12-08T08:41:58.811Z,3.40
2022-12-08T08:44:25.438Z,4.22
2022-12-08T08:46:52.249Z,4.30
2022-12-08T08:49:18.948Z,6.57
2022-12-08T08:51:46.149Z,4.60
2022-12-08T08:54:12.782Z,5.57
2022-12-08T08:56:40.450Z,5.38
2022-12-08T08:59:07.064Z,5.05
2022-12-08T09:01:34.288Z,6.57
2022-12-08T09:04:01.652Z,5.10
2022-12-08T09:06:28.706Z,4.85
2022-12-08T09:08:55.509Z,6.25
2022-12-08T09:11:23.791Z,8.82
2022-12-08T09:13:52.258Z,9.70
2022-12-08T09:16:19.696Z,9.38
2022-12-08T09:18:46.441Z,10.40
2022-12-08T09:21:20.257Z,7.78
2022-12-08T09:26:13.310Z,8.48
2022-12-08T09:28:40.222Z,9.27
2022-12-08T09:31:06.860Z,8.75
2022-12-08T09:33:33.460Z,8.20
2022-12-08T09:36:04.103Z,7.88
2022-12-08T09:38:31.222Z,8.48
2022-12-08T09:40:58.420Z,7.32
2022-12-08T09:43:46.751Z,8.50
2022-12-08T09:46:17.437Z,6.53
2022-12-08T09:48:51.943Z,7.07
2022-12-08T09:51:18.668Z,6.25
2022-12-08T09:53:58.023Z,8.40
2022-12-08T09:56:30.991Z,8.25
2022-12-08T09:59:17.079Z,7.43
2022-12-08T10:01:44.017Z,8.48
2022-12-08T10:04:22.453Z,8.85
2022-12-08T10:07:11.971Z,6.75
2022-12-08T10:10:00.515Z,7.35
2022-12-08T10:12:39.080Z,7.68
2022-12-08T10:15:42.623Z,7.55
2022-12-08T10:18:37.810Z,8.52
2022-12-08T10:21:19.807Z,8.90
2022-12-08T10:23:51.444Z,6.78
2022-12-08T10:26:20.710Z,7.78
2022-12-08T10:28:47.940Z,8.80
2022-12-08T10:31:20.066Z,8.90
2022-12-08T10:33:51.991Z,7.82
2022-12-08T10:36:18.560Z,8.85
2022-12-08T10:38:45.136Z,8.90
2022-12-08T10:41:11.664Z,8.10
2022-12-08T10:43:59.512Z,7.82
2022-12-08T10:46:28.265Z,8.00
2022-12-08T10:49:10.245Z,7.43
2022-12-08T10:51:39.739Z,8.18
2022-12-08T10:54:26.629Z,6.05
2022-12-08T10:56:56.011Z,8.23
2022-12-08T10:59:25.519Z,8.18
2022-12-08T11:01:55.111Z,10.90
2022-12-08T11:04:34.307Z,10.50
2022-12-08T11:07:01.037Z,8.38
2022-12-08T11:09:48.652Z,9.63
2022-12-08T11:12:16.640Z,8.20
2022-12-08T11:14:43.226Z,7.25
2022-12-08T11:17:14.763Z,7.10
2022-12-08T11:19:43.745Z,6.40
2022-12-08T11:22:32.435Z,6.07
2022-12-08T11:25:08.378Z,5.13
2022-12-08T11:27:37.616Z,5.53
2022-12-08T11:30:14.974Z,5.15
2022-12-08T11:32:46.725Z,5.80
2022-12-08T11:35:21.448Z,4.60
2022-12-08T11:37:48.302Z,4.82
2022-12-08T11:40:21.024Z,3.92
2022-12-08T11:43:09.510Z,6.60
2022-12-08T11:45:36.927Z,4.20
2022-12-08T11:48:06.296Z,5.35
2022-12-08T11:50:43.391Z,4.00
2022-12-08T11:53:19.872Z,4.43
2022-12-08T11:55:54.791Z,5.28
2022-12-08T11:58:31.152Z,5.57
2022-12-08T12:00:58.605Z,4.90
2022-12-08T12:03:38.195Z,5.18
2022-12-08T12:06:53.736Z,5.60
2022-12-08T12:09:52.412Z,5.25
2022-12-08T12:12:51.306Z,5.15
2022-12-08T12:15:53.527Z,4.70
2022-12-08T12:18:35.743Z,5.43
2022-12-08T12:21:12.691Z,5.47
2022-12-08T12:23:41.783Z,5.38
2022-12-08T12:26:16.776Z,5.25
2022-12-08T12:28:46.369Z,7.13
2022-12-08T12:31:18.106Z,5.93
2022-12-08T12:33:46.928Z,5.72
2022-12-08T12:36:14.831Z,5.72
2022-12-08T12:39:07.767Z,4.72
2022-12-08T12:42:01.464Z,4.72
2022-12-08T12:44:27.968Z,5.18
2022-12-08T12:46:56.322Z,6.13
2022-12-08T12:49:37.986Z,5.10
2022-12-08T12:52:10.386Z,5.43
2022-12-08T12:55:05.121Z,5.65
2022-12-08T12:57:39.204Z,5.93
2022-12-08T13:00:05.985Z,5.95
2022-12-08T13:02:46.485Z,5.28
2022-12-08T13:05:45.818Z,6.82
2022-12-08T13:08:24.616Z,6.32
2022-12-08T13:10:57.296Z,4.95
2022-12-08T13:13:24.437Z,6.53
2022-12-08T13:15:57.693Z,6.30
2022-12-08T13:18:36.471Z,6.43
2022-12-08T13:21:15.094Z,5.38
2022-12-08T13:24:09.325Z,6.15
2022-12-08T13:26:50.126Z,7.20
2022-12-08T13:29:24.761Z,7.97
2022-12-08T13:31:54.922Z,5.38
2022-12-08T13:34:41.649Z,7.90
2022-12-08T13:37:10.991Z,5.32
2022-12-08T13:39:40.584Z,6.65
2022-12-08T13:42:14.263Z,7.07
2022-12-08T13:47:54.110Z,5.80
2022-12-08T13:52:59.968Z,6.05
2022-12-08T13:59:22.502Z,8.52
2022-12-08T14:01:50.517Z,6.93
2022-12-08T14:04:42.481Z,7.30
2022-12-08T14:07:11.791Z,7.55
2022-12-08T14:09:39.972Z,6.93
2022-12-08T14:12:28.167Z,6.60
2022-12-08T14:15:04.156Z,5.85
2022-12-08T14:17:31.303Z,9.18
2022-12-08T14:19:57.866Z,7.57
2022-12-08T14:22:25.052Z,7.68
2022-12-08T14:24:53.729Z,7.15
2022-12-08T14:27:24.320Z,7.03
2022-12-08T14:30:07.822Z,7.07
2022-12-08T14:32:43.439Z,7.05
2022-12-08T14:35:09.952Z,7.57
2022-12-08T14:37:44.110Z,7.85
2022-12-08T14:40:38.164Z,8.02
2022-12-08T14:43:07.451Z,8.88
2022-12-08T14:45:41.334Z,8.55
2022-12-08T14:50:54.412Z,8.93
2022-12-08T14:53:21.092Z,6.30
2022-12-08T14:55:48.690Z,6.97
2022-12-08T14:58:24.015Z,7.88
2022-12-08T15:00:54.544Z,7.18
2022-12-08T15:03:23.012Z,7.07
2022-12-08T15:05:56.172Z,8.93
2022-12-08T15:08:22.894Z,6.50
2022-12-08T15:11:21.610Z,8.00
2022-12-08T15:13:51.716Z,6.72
2022-12-08T15:16:39.402Z,8.50
2022-12-08T15:19:21.448Z,5.80
2022-12-08T15:21:48.205Z,9.30
2022-12-08T15:24:16.829Z,9.55
2022-12-08T15:26:49.081Z,9.00
2022-12-08T15:29:27.702Z,7.10
2022-12-08T15:31:57.693Z,8.35
2022-12-08T15:34:24.920Z,8.50
2022-12-08T15:36:53.504Z,6.95
2022-12-08T15:39:35.740Z,6.18
2022-12-08T15:42:04.525Z,9.30
2022-12-08T15:44:32.845Z,8.50
2022-12-08T15:47:00.142Z,7.72
2022-12-08T15:49:27.053Z,7.50
2022-12-08T15:52:01.934Z,7.35
2022-12-08T15:54:34.630Z,8.30
2022-12-08T15:59:48.192Z,8.27
2022-12-08T16:02:22.197Z,8.55
2022-12-08T16:07:38.277Z,9.32
2022-12-08T16:10:06.724Z,10.35
2022-12-08T16:15:58.648Z,9.20
2022-12-08T16:18:29.062Z,11.77
2022-12-08T16:21:09.661Z,9.90
2022-12-08T16:23:43.694Z,9.20
2022-12-08T16:26:44.197Z,9.73
2022-12-08T16:29:04.643Z,11.57
2022-12-08T16:31:31.438Z,9.93
2022-12-08T16:33:58.224Z,8.95
2022-12-08T16:36:24.967Z,8.18
2022-12-08T16:38:51.513Z,8.25
2022-12-08T16:41:56.739Z,8.07
2022-12-08T16:44:23.320Z,8.80
2022-12-08T16:46:49.885Z,8.45
2022-12-08T16:49:16.526Z,9.27
2022-12-08T16:51:43.816Z,10.75
2022-12-08T16:54:10.643Z,9.35
2022-12-08T16:56:37.305Z,11.77
2022-12-08T16:59:03.956Z,9.43
2022-12-08T17:01:31.671Z,9.75
2022-12-08T17:04:29.778Z,11.13
2022-12-08T17:06:45.312Z,13.05
2022-12-08T17:09:11.977Z,10.52
2022-12-08T17:11:43.086Z,11.18
2022-12-08T17:14:11.960Z,9.45
2022-12-08T17:16:38.604Z,8.50
2022-12-08T17:19:05.415Z,11.30
2022-12-08T17:21:32.323Z,11.90
2022-12-08T17:23:58.921Z,11.75
2022-12-08T17:26:25.476Z,11.63
2022-12-08T17:29:00.518Z,11.88
2022-12-08T17:31:30.279Z,11.27
2022-12-08T17:34:05.616Z,11.60
2022-12-08T17:36:32.524Z,9.38
2022-12-08T17:39:00.500Z,10.73
2022-12-08T17:41:28.363Z,9.57
2022-12-08T17:43:55.549Z,9.82
2022-12-08T17:46:23.315Z,11.43
2022-12-08T17:48:50.003Z,11.05
2022-12-08T17:51:16.718Z,9.10
2022-12-08T17:53:44.027Z,9.88
2022-12-08T17:56:21.308Z,11.55
2022-12-08T17:58:52.925Z,10.45
2022-12-08T18:01:22.163Z,10.63
2022-12-08T18:03:48.821Z,8.48
2022-12-08T18:06:17.669Z,10.65
2022-12-08T18:08:44.433Z,9.68
2022-12-08T18:11:17.068Z,10.93
2022-12-08T18:13:44.723Z,8.50
2022-12-08T18:16:11.322Z,9.85
2022-12-08T18:18:37.971Z,11.80
2022-12-08T18:21:04.761Z,8.82
2022-12-08T18:23:31.379Z,7.55
2022-12-08T18:25:58.021Z,8.80
2022-12-08T18:28:24.588Z,9.27
2022-12-08T18:30:51.490Z,8.32
2022-12-08T18:33:18.155Z,9.00
2022-12-08T18:35:45.638Z,10.75
2022-12-08T18:38:12.299Z,11.15
2022-12-08T18:40:39.190Z,12.15
2022-12-08T18:43:05.857Z,12.57
2022-12-08T18:45:36.761Z,12.15
2022-12-08T18:48:03.624Z,12.90
2022-12-08T18:50:30.388Z,12.68
2022-12-08T18:52:57.067Z,11.95
2022-12-08T18:55:23.632Z,10.90
2022-12-08T18:57:50.215Z,10.65
2022-12-08T19:00:18.893Z,9.80
2022-12-08T19:02:46.005Z,11.38
2022-12-08T19:05:13.967Z,10.30
2022-12-08T19:07:42.615Z,11.57
2022-12-08T19:10:10.644Z,9.02
2022-12-08T19:12:37.461Z,10.35
2022-12-08T19:15:04.756Z,8.25
2022-12-08T19:17:31.735Z,11.07
2022-12-08T19:19:58.355Z,9.73
2022-12-08T19:22:25.001Z,8.82
2022-12-08T19:24:51.576Z,11.43
2022-12-08T19:27:18.710Z,10.40
2022-12-08T19:29:45.378Z,11.35
2022-12-08T19:32:12.108Z,10.77
2022-12-08T19:34:38.720Z,10.18
2022-12-08T19:37:06.723Z,12.02
2022-12-08T19:39:51.646Z,11.40
2022-12-08T19:42:39.271Z,9.50
2022-12-08T19:45:19.941Z,8.63
2022-12-08T19:47:47.522Z,10.88
2022-12-08T19:50:34.672Z,9.82
2022-12-08T19:53:02.659Z,8.82
2022-12-08T19:55:29.512Z,8.63
2022-12-08T19:57:57.178Z,10.02
2022-12-08T20:00:24.450Z,8.77
2022-12-08T20:02:51.437Z,7.25
2022-12-08T20:05:18.141Z,8.52
2022-12-08T20:07:44.855Z,7.10
2022-12-08T20:10:19.711Z,7.60
2022-12-08T20:12:46.372Z,7.65
2022-12-08T20:15:14.771Z,6.80
2022-12-08T20:17:42.892Z,5.63
2022-12-08T20:20:10.564Z,6.85
2022-12-08T20:22:37.426Z,5.80
2022-12-08T20:25:04.296Z,6.60
2022-12-08T20:27:30.909Z,5.80
2022-12-08T20:29:57.561Z,6.82
2022-12-08T20:32:24.179Z,6.70
2022-12-08T20:34:50.907Z,6.40
2022-12-08T20:37:17.504Z,6.60
2022-12-08T20:39:44.200Z,8.10
2022-12-08T20:42:13.971Z,6.78
2022-12-08T20:44:44.473Z,6.88
2022-12-08T20:47:12.298Z,7.63
2022-12-08T20:49:39.374Z,5.03
2022-12-08T20:52:06.377Z,6.70
2022-12-08T20:54:33.125Z,6.50
2022-12-08T20:57:00.436Z,6.65
2022-12-08T20:59:27.151Z,5.15
2022-12-08T21:01:54.460Z,5.13
2022-12-08T21:04:21.307Z,6.25
2022-12-08T21:06:48.356Z,5.05
2022-12-08T21:09:15.048Z,7.85
2022-12-08T21:11:41.860Z,9.13
2022-12-08T21:14:08.555Z,7.70
2022-12-08T21:16:35.321Z,7.93
2022-12-08T21:19:02.064Z,6.40
2022-12-08T21:21:28.828Z,7.70
2022-12-08T21:23:55.588Z,6.00
2022-12-08T21:26:26.005Z,7.65
2022-12-08T21:28:58.155Z,7.28
2022-12-08T21:31:27.032Z,6.70
2022-12-08T21:33:55.232Z,6.50
2022-12-08T21:36:22.179Z,7.07
2022-12-08T21:38:49.422Z,6.93
2022-12-08T21:41:38.012Z,5.07
2022-12-08T21:44:06.050Z,6.32
2022-12-08T21:46:33.594Z,6.95
2022-12-08T21:49:00.365Z,5.70
2022-12-08T21:51:27.459Z,5.75
2022-12-08T21:53:54.751Z,5.78
2022-12-08T21:56:21.376Z,4.10
2022-12-08T21:58:48.245Z,5.60
2022-12-08T22:01:15.042Z,5.53
2022-12-08T22:03:42.083Z,6.43
2022-12-08T22:06:11.484Z,6.78
2022-12-08T22:08:38.808Z,6.90
2022-12-08T22:11:06.744Z,7.40
2022-12-08T22:13:39.074Z,6.13
2022-12-08T22:16:09.459Z,6.80
2022-12-08T22:18:37.192Z,6.63
2022-12-08T22:21:10.744Z,6.28
2022-12-08T22:23:38.408Z,5.07
2022-12-08T22:26:06.266Z,5.43
2022-12-08T22:28:35.776Z,5.88
2022-12-08T22:31:12.088Z,5.68
2022-12-08T22:33:40.293Z,5.15
2022-12-08T22:36:10.988Z,4.50
2022-12-08T22:38:37.898Z,4.38
2022-12-08T22:41:07.573Z,4.38
2022-12-08T22:43:34.717Z,4.32
2022-12-08T22:46:01.609Z,4.60
2022-12-08T22:48:28.823Z,4.07
2022-12-08T22:51:00.015Z,3.15
2022-12-08T22:53:26.874Z,4.20
2022-12-08T22:55:54.077Z,6.20
2022-12-08T22:58:20.863Z,6.40
2022-12-08T23:00:47.832Z,6.80
2022-12-08T23:03:14.596Z,6.00
2022-12-08T23:05:41.612Z,4.60
2022-12-08T23:08:09.328Z,4.68
2022-12-08T23:10:36.275Z,4.47
2022-12-08T23:13:04.196Z,5.18
2022-12-08T23:15:31.654Z,5.63
2022-12-08T23:17:58.309Z,4.85
2022-12-08T23:20:24.974Z,4.75
2022-12-08T23:22:51.873Z,4.05
2022-12-08T23:25:19.056Z,3.28
2022-12-08T23:27:46.586Z,3.33
2022-12-08T23:30:14.013Z,4.13
2022-12-08T23:32:40.972Z,3.83
2022-12-08T23:35:08.561Z,3.70
2022-12-08T23:37:35.282Z,3.67
2022-12-08T23:40:02.448Z,4.20
2022-12-08T23:42:30.556Z,4.60
2022-12-08T23:44:57.549Z,5.13
2022-12-08T23:47:24.365Z,4.43
2022-12-08T23:49:51.141Z,6.22
2022-12-08T23:52:17.731Z,5.03
2022-12-08T23:54:45.038Z,4.40
2022-12-08T23:57:11.857Z,4.05
2022-12-08T23:59:38.694Z,4.85
